sensor_id;sensor_type;location;lat;lon;timestamp;temperature;humidity
80176;DHT22;75462;42.122;24.736;2024-02-21T00:02:11;8.10;80.00
80176;DHT22;75462;42.122;24.736;2024-02-21T00:04:36;8.00;81.20
80176;DHT22;75462;42.122;24.736;2024-02-21T00:07:04;8.40;79.50
80176;DHT22;75462;42.122;24.736;2024-02-21T00:09:29;8.30;79.50
80176;DHT22;75462;42.122;24.736;2024-02-21T00:11:55;8.30;79.80
80176;DHT22;75462;42.122;24.736;2024-02-21T00:14:21;8.20;80.30
80176;DHT22;75462;42.122;24.736;2024-02-21T00:16:47;8.10;81.00
80176;DHT22;75462;42.122;24.736;2024-02-21T00:19:12;8.10;81.40
80176;DHT22;75462;42.122;24.736;2024-02-21T00:21:40;8.10;82.00
80176;DHT22;75462;42.122;24.736;2024-02-21T00:24:05;8.40;81.10
80176;DHT22;75462;42.122;24.736;2024-02-21T00:26:31;8.40;80.20
80176;DHT22;75462;42.122;24.736;2024-02-21T00:28:57;8.40;80.90
80176;DHT22;75462;42.122;24.736;2024-02-21T00:31:22;8.30;81.40
80176;DHT22;75462;42.122;24.736;2024-02-21T00:33:48;8.20;82.20
80176;DHT22;75462;42.122;24.736;2024-02-21T00:36:14;8.20;82.60
80176;DHT22;75462;42.122;24.736;2024-02-21T00:38:40;8.10;82.70
80176;DHT22;75462;42.122;24.736;2024-02-21T00:41:06;8.10;81.90
80176;DHT22;75462;42.122;24.736;2024-02-21T00:43:32;8.10;81.80
80176;DHT22;75462;42.122;24.736;2024-02-21T00:45:58;8.00;80.80
80176;DHT22;75462;42.122;24.736;2024-02-21T00:48:23;8.10;80.00
80176;DHT22;75462;42.122;24.736;2024-02-21T00:50:49;8.30;79.40
80176;DHT22;75462;42.122;24.736;2024-02-21T00:53:15;8.40;78.60
80176;DHT22;75462;42.122;24.736;2024-02-21T00:55:40;8.40;78.20
80176;DHT22;75462;42.122;24.736;2024-02-21T00:58:06;8.30;78.40
80176;DHT22;75462;42.122;24.736;2024-02-21T01:00:32;8.30;78.90
80176;DHT22;75462;42.122;24.736;2024-02-21T01:02:57;8.30;78.70
80176;DHT22;75462;42.122;24.736;2024-02-21T01:05:23;8.30;78.90
80176;DHT22;75462;42.122;24.736;2024-02-21T01:07:49;8.20;79.40
80176;DHT22;75462;42.122;24.736;2024-02-21T01:10:14;8.20;79.50
80176;DHT22;75462;42.122;24.736;2024-02-21T01:12:40;8.20;79.80
80176;DHT22;75462;42.122;24.736;2024-02-21T01:15:06;8.30;79.50
80176;DHT22;75462;42.122;24.736;2024-02-21T01:17:32;8.40;79.10
80176;DHT22;75462;42.122;24.736;2024-02-21T01:19:57;8.30;78.80
80176;DHT22;75462;42.122;24.736;2024-02-21T01:22:23;8.20;78.00
80176;DHT22;75462;42.122;24.736;2024-02-21T01:24:49;8.30;76.50
80176;DHT22;75462;42.122;24.736;2024-02-21T01:27:14;8.40;74.80
80176;DHT22;75462;42.122;24.736;2024-02-21T01:29:40;8.40;74.20
80176;DHT22;75462;42.122;24.736;2024-02-21T01:32:06;8.40;74.00
80176;DHT22;75462;42.122;24.736;2024-02-21T01:34:31;8.40;73.70
80176;DHT22;75462;42.122;24.736;2024-02-21T01:36:57;8.50;73.40
80176;DHT22;75462;42.122;24.736;2024-02-21T01:39:23;8.60;73.00
80176;DHT22;75462;42.122;24.736;2024-02-21T01:41:48;8.70;73.50
80176;DHT22;75462;42.122;24.736;2024-02-21T01:44:14;8.90;72.40
80176;DHT22;75462;42.122;24.736;2024-02-21T01:46:39;8.90;71.00
80176;DHT22;75462;42.122;24.736;2024-02-21T01:49:06;8.90;71.00
80176;DHT22;75462;42.122;24.736;2024-02-21T01:51:32;9.00;71.10
80176;DHT22;75462;42.122;24.736;2024-02-21T01:53:58;9.10;71.40
80176;DHT22;75462;42.122;24.736;2024-02-21T01:56:24;9.00;70.40
80176;DHT22;75462;42.122;24.736;2024-02-21T01:58:51;8.90;72.10
80176;DHT22;75462;42.122;24.736;2024-02-21T02:01:17;9.20;70.60
80176;DHT22;75462;42.122;24.736;2024-02-21T02:03:45;9.50;69.70
80176;DHT22;75462;42.122;24.736;2024-02-21T02:06:11;9.60;68.60
80176;DHT22;75462;42.122;24.736;2024-02-21T02:08:36;9.60;68.80
80176;DHT22;75462;42.122;24.736;2024-02-21T02:11:03;9.50;68.70
80176;DHT22;75462;42.122;24.736;2024-02-21T02:13:29;9.60;68.50
80176;DHT22;75462;42.122;24.736;2024-02-21T02:15:54;9.60;68.60
80176;DHT22;75462;42.122;24.736;2024-02-21T02:18:20;9.70;68.00
80176;DHT22;75462;42.122;24.736;2024-02-21T02:20:47;9.70;68.40
80176;DHT22;75462;42.122;24.736;2024-02-21T02:23:20;9.60;69.50
80176;DHT22;75462;42.122;24.736;2024-02-21T02:25:46;9.50;70.50
80176;DHT22;75462;42.122;24.736;2024-02-21T02:28:14;9.50;71.50
80176;DHT22;75462;42.122;24.736;2024-02-21T02:30:40;9.50;71.60
80176;DHT22;75462;42.122;24.736;2024-02-21T02:33:06;9.40;72.30
80176;DHT22;75462;42.122;24.736;2024-02-21T02:35:32;9.40;72.90
80176;DHT22;75462;42.122;24.736;2024-02-21T02:37:58;9.30;73.60
80176;DHT22;75462;42.122;24.736;2024-02-21T02:40:24;9.30;73.30
80176;DHT22;75462;42.122;24.736;2024-02-21T02:42:50;9.20;74.40
80176;DHT22;75462;42.122;24.736;2024-02-21T02:45:17;9.20;75.10
80176;DHT22;75462;42.122;24.736;2024-02-21T02:47:44;9.20;74.60
80176;DHT22;75462;42.122;24.736;2024-02-21T03:04:06;9.20;74.40
80176;DHT22;75462;42.122;24.736;2024-02-21T03:06:31;9.90;72.60
80176;DHT22;75462;42.122;24.736;2024-02-21T03:08:57;10.00;73.10
80176;DHT22;75462;42.122;24.736;2024-02-21T03:11:23;10.00;71.00
80176;DHT22;75462;42.122;24.736;2024-02-21T03:13:55;10.00;71.40
80176;DHT22;75462;42.122;24.736;2024-02-21T03:16:21;9.80;72.60
80176;DHT22;75462;42.122;24.736;2024-02-21T03:18:47;9.70;73.70
80176;DHT22;75462;42.122;24.736;2024-02-21T03:21:13;9.60;74.10
80176;DHT22;75462;42.122;24.736;2024-02-21T03:23:38;9.70;73.90
80176;DHT22;75462;42.122;24.736;2024-02-21T03:26:04;9.70;74.60
80176;DHT22;75462;42.122;24.736;2024-02-21T03:28:30;9.70;74.70
80176;DHT22;75462;42.122;24.736;2024-02-21T03:30:55;9.60;75.10
80176;DHT22;75462;42.122;24.736;2024-02-21T03:33:21;9.50;76.30
80176;DHT22;75462;42.122;24.736;2024-02-21T03:35:48;9.60;74.00
80176;DHT22;75462;42.122;24.736;2024-02-21T03:38:14;9.20;73.00
80176;DHT22;75462;42.122;24.736;2024-02-21T03:40:40;8.90;74.40
80176;DHT22;75462;42.122;24.736;2024-02-21T03:43:05;8.80;75.40
80176;DHT22;75462;42.122;24.736;2024-02-21T03:45:31;8.70;76.40
80176;DHT22;75462;42.122;24.736;2024-02-21T03:47:57;8.90;75.70
80176;DHT22;75462;42.122;24.736;2024-02-21T03:50:22;8.80;74.80
80176;DHT22;75462;42.122;24.736;2024-02-21T03:52:48;8.90;73.80
80176;DHT22;75462;42.122;24.736;2024-02-21T03:55:14;9.00;74.00
80176;DHT22;75462;42.122;24.736;2024-02-21T03:57:39;9.20;72.80
80176;DHT22;75462;42.122;24.736;2024-02-21T04:00:05;9.20;70.10
80176;DHT22;75462;42.122;24.736;2024-02-21T04:02:36;9.20;70.10
80176;DHT22;75462;42.122;24.736;2024-02-21T04:05:02;8.90;73.50
80176;DHT22;75462;42.122;24.736;2024-02-21T04:07:27;8.90;73.40
80176;DHT22;75462;42.122;24.736;2024-02-21T04:09:53;8.80;72.80
80176;DHT22;75462;42.122;24.736;2024-02-21T04:12:19;8.70;73.00
80176;DHT22;75462;42.122;24.736;2024-02-21T04:14:45;8.70;72.60
80176;DHT22;75462;42.122;24.736;2024-02-21T04:17:10;8.80;72.10
80176;DHT22;75462;42.122;24.736;2024-02-21T04:19:36;8.90;72.00
80176;DHT22;75462;42.122;24.736;2024-02-21T04:22:02;8.80;72.10
80176;DHT22;75462;42.122;24.736;2024-02-21T04:24:27;8.60;72.30
80176;DHT22;75462;42.122;24.736;2024-02-21T04:26:53;8.70;70.90
80176;DHT22;75462;42.122;24.736;2024-02-21T04:29:18;8.90;68.50
80176;DHT22;75462;42.122;24.736;2024-02-21T04:31:44;8.90;69.50
80176;DHT22;75462;42.122;24.736;2024-02-21T04:34:10;8.70;70.20
80176;DHT22;75462;42.122;24.736;2024-02-21T04:36:36;8.90;71.40
80176;DHT22;75462;42.122;24.736;2024-02-21T04:39:02;9.00;71.20
80176;DHT22;75462;42.122;24.736;2024-02-21T04:41:27;9.20;71.30
80176;DHT22;75462;42.122;24.736;2024-02-21T04:43:53;9.50;71.00
80176;DHT22;75462;42.122;24.736;2024-02-21T04:46:19;9.40;72.40
80176;DHT22;75462;42.122;24.736;2024-02-21T04:48:45;9.50;72.40
80176;DHT22;75462;42.122;24.736;2024-02-21T04:51:12;9.60;72.70
80176;DHT22;75462;42.122;24.736;2024-02-21T04:53:39;9.70;71.70
80176;DHT22;75462;42.122;24.736;2024-02-21T04:56:05;9.70;72.30
80176;DHT22;75462;42.122;24.736;2024-02-21T04:58:30;9.60;71.80
80176;DHT22;75462;42.122;24.736;2024-02-21T05:00:56;9.40;72.90
80176;DHT22;75462;42.122;24.736;2024-02-21T05:03:22;9.30;73.70
80176;DHT22;75462;42.122;24.736;2024-02-21T05:05:48;9.20;73.90
80176;DHT22;75462;42.122;24.736;2024-02-21T05:08:13;9.10;74.30
80176;DHT22;75462;42.122;24.736;2024-02-21T05:10:39;9.00;74.70
80176;DHT22;75462;42.122;24.736;2024-02-21T05:13:04;8.90;74.80
80176;DHT22;75462;42.122;24.736;2024-02-21T05:15:30;8.80;75.50
80176;DHT22;75462;42.122;24.736;2024-02-21T05:17:56;8.70;75.80
80176;DHT22;75462;42.122;24.736;2024-02-21T05:20:22;8.60;76.30
80176;DHT22;75462;42.122;24.736;2024-02-21T05:22:48;8.50;76.30
80176;DHT22;75462;42.122;24.736;2024-02-21T05:25:14;8.50;76.90
80176;DHT22;75462;42.122;24.736;2024-02-21T05:27:39;8.50;76.90
80176;DHT22;75462;42.122;24.736;2024-02-21T05:30:05;8.50;77.00
80176;DHT22;75462;42.122;24.736;2024-02-21T05:32:32;8.50;76.60
80176;DHT22;75462;42.122;24.736;2024-02-21T05:34:57;8.50;76.90
80176;DHT22;75462;42.122;24.736;2024-02-21T05:37:23;8.50;76.90
80176;DHT22;75462;42.122;24.736;2024-02-21T05:39:49;8.40;76.60
80176;DHT22;75462;42.122;24.736;2024-02-21T05:42:15;8.40;77.60
80176;DHT22;75462;42.122;24.736;2024-02-21T05:44:40;8.40;77.70
80176;DHT22;75462;42.122;24.736;2024-02-21T05:47:06;8.40;77.80
80176;DHT22;75462;42.122;24.736;2024-02-21T05:49:39;8.40;78.30
80176;DHT22;75462;42.122;24.736;2024-02-21T05:52:04;8.30;78.00
80176;DHT22;75462;42.122;24.736;2024-02-21T05:54:31;8.30;78.20
80176;DHT22;75462;42.122;24.736;2024-02-21T05:56:57;8.20;79.40
80176;DHT22;75462;42.122;24.736;2024-02-21T05:59:22;8.30;78.30
80176;DHT22;75462;42.122;24.736;2024-02-21T06:01:56;8.30;77.70
80176;DHT22;75462;42.122;24.736;2024-02-21T06:04:23;8.30;78.00
80176;DHT22;75462;42.122;24.736;2024-02-21T06:06:48;8.40;77.60
80176;DHT22;75462;42.122;24.736;2024-02-21T06:09:14;8.50;77.20
80176;DHT22;75462;42.122;24.736;2024-02-21T06:11:40;8.50;76.40
80176;DHT22;75462;42.122;24.736;2024-02-21T06:14:06;8.60;76.90
80176;DHT22;75462;42.122;24.736;2024-02-21T06:16:31;8.70;77.00
80176;DHT22;75462;42.122;24.736;2024-02-21T06:18:57;8.70;77.10
80176;DHT22;75462;42.122;24.736;2024-02-21T06:21:23;8.90;76.30
80176;DHT22;75462;42.122;24.736;2024-02-21T06:23:48;9.00;74.70
80176;DHT22;75462;42.122;24.736;2024-02-21T06:26:14;9.10;74.70
80176;DHT22;75462;42.122;24.736;2024-02-21T06:28:40;9.00;75.00
80176;DHT22;75462;42.122;24.736;2024-02-21T06:31:05;9.10;75.10
80176;DHT22;75462;42.122;24.736;2024-02-21T06:33:31;9.10;74.50
80176;DHT22;75462;42.122;24.736;2024-02-21T06:35:57;9.00;75.20
80176;DHT22;75462;42.122;24.736;2024-02-21T06:38:22;8.90;74.80
80176;DHT22;75462;42.122;24.736;2024-02-21T06:40:48;9.00;74.80
80176;DHT22;75462;42.122;24.736;2024-02-21T06:43:18;8.90;75.10
80176;DHT22;75462;42.122;24.736;2024-02-21T06:45:45;9.00;75.30
80176;DHT22;75462;42.122;24.736;2024-02-21T06:48:13;9.10;73.70
80176;DHT22;75462;42.122;24.736;2024-02-21T06:50:39;9.20;73.30
80176;DHT22;75462;42.122;24.736;2024-02-21T06:53:04;9.30;71.90
80176;DHT22;75462;42.122;24.736;2024-02-21T06:55:30;9.30;72.10
80176;DHT22;75462;42.122;24.736;2024-02-21T06:57:55;9.40;72.70
80176;DHT22;75462;42.122;24.736;2024-02-21T07:00:21;9.70;71.60
80176;DHT22;75462;42.122;24.736;2024-02-21T07:02:48;10.00;70.20
80176;DHT22;75462;42.122;24.736;2024-02-21T07:05:14;9.90;68.70
80176;DHT22;75462;42.122;24.736;2024-02-21T07:07:39;9.70;68.80
80176;DHT22;75462;42.122;24.736;2024-02-21T07:10:06;9.50;68.60
80176;DHT22;75462;42.122;24.736;2024-02-21T07:12:32;9.40;69.80
80176;DHT22;75462;42.122;24.736;2024-02-21T07:14:57;9.50;68.60
80176;DHT22;75462;42.122;24.736;2024-02-21T07:17:26;9.70;68.50
80176;DHT22;75462;42.122;24.736;2024-02-21T07:19:51;9.70;67.50
80176;DHT22;75462;42.122;24.736;2024-02-21T07:22:17;9.80;67.90
80176;DHT22;75462;42.122;24.736;2024-02-21T07:24:43;9.90;67.70
80176;DHT22;75462;42.122;24.736;2024-02-21T07:27:08;10.00;67.00
80176;DHT22;75462;42.122;24.736;2024-02-21T07:29:34;10.00;66.30
80176;DHT22;75462;42.122;24.736;2024-02-21T07:32:00;10.30;65.30
80176;DHT22;75462;42.122;24.736;2024-02-21T07:34:25;10.50;64.90
80176;DHT22;75462;42.122;24.736;2024-02-21T07:36:51;10.30;64.50
80176;DHT22;75462;42.122;24.736;2024-02-21T07:39:17;10.20;65.70
80176;DHT22;75462;42.122;24.736;2024-02-21T07:41:42;10.20;66.30
80176;DHT22;75462;42.122;24.736;2024-02-21T07:44:11;10.20;66.60
80176;DHT22;75462;42.122;24.736;2024-02-21T07:46:37;10.20;66.80
80176;DHT22;75462;42.122;24.736;2024-02-21T07:49:02;10.10;67.30
80176;DHT22;75462;42.122;24.736;2024-02-21T07:51:28;10.30;67.50
80176;DHT22;75462;42.122;24.736;2024-02-21T07:53:54;10.50;66.00
80176;DHT22;75462;42.122;24.736;2024-02-21T07:56:21;10.50;65.30
80176;DHT22;75462;42.122;24.736;2024-02-21T07:58:47;10.60;64.80
80176;DHT22;75462;42.122;24.736;2024-02-21T08:01:18;10.90;63.10
80176;DHT22;75462;42.122;24.736;2024-02-21T08:03:45;11.00;62.30
80176;DHT22;75462;42.122;24.736;2024-02-21T08:06:12;10.90;63.30
80176;DHT22;75462;42.122;24.736;2024-02-21T08:08:38;10.80;64.10
80176;DHT22;75462;42.122;24.736;2024-02-21T08:11:04;10.80;64.70
80176;DHT22;75462;42.122;24.736;2024-02-21T08:13:32;10.80;63.70
80176;DHT22;75462;42.122;24.736;2024-02-21T08:15:58;10.70;65.10
80176;DHT22;75462;42.122;24.736;2024-02-21T08:18:23;10.70;64.30
80176;DHT22;75462;42.122;24.736;2024-02-21T08:20:49;10.80;65.50
80176;DHT22;75462;42.122;24.736;2024-02-21T08:23:19;10.80;65.00
80176;DHT22;75462;42.122;24.736;2024-02-21T08:25:45;11.10;64.50
80176;DHT22;75462;42.122;24.736;2024-02-21T08:28:10;11.30;61.30
80176;DHT22;75462;42.122;24.736;2024-02-21T08:30:36;11.60;60.00
80176;DHT22;75462;42.122;24.736;2024-02-21T08:33:02;11.70;58.20
80176;DHT22;75462;42.122;24.736;2024-02-21T08:35:29;11.90;58.00
80176;DHT22;75462;42.122;24.736;2024-02-21T08:37:54;11.60;58.60
80176;DHT22;75462;42.122;24.736;2024-02-21T08:40:20;11.70;58.20
80176;DHT22;75462;42.122;24.736;2024-02-21T08:42:47;11.80;57.90
80176;DHT22;75462;42.122;24.736;2024-02-21T08:45:13;11.90;57.60
80176;DHT22;75462;42.122;24.736;2024-02-21T08:47:42;11.80;57.90
80176;DHT22;75462;42.122;24.736;2024-02-21T08:50:08;12.10;57.40
80176;DHT22;75462;42.122;24.736;2024-02-21T08:52:37;11.90;59.10
80176;DHT22;75462;42.122;24.736;2024-02-21T08:55:03;12.00;58.10
80176;DHT22;75462;42.122;24.736;2024-02-21T08:57:29;12.10;57.90
80176;DHT22;75462;42.122;24.736;2024-02-21T09:00:05;11.90;58.10
80176;DHT22;75462;42.122;24.736;2024-02-21T09:02:40;12.00;58.70
80176;DHT22;75462;42.122;24.736;2024-02-21T09:05:06;12.00;58.60
80176;DHT22;75462;42.122;24.736;2024-02-21T09:07:32;12.00;58.90
80176;DHT22;75462;42.122;24.736;2024-02-21T09:09:58;12.00;59.00
80176;DHT22;75462;42.122;24.736;2024-02-21T09:12:23;12.00;59.30
80176;DHT22;75462;42.122;24.736;2024-02-21T09:14:49;12.20;58.40
80176;DHT22;75462;42.122;24.736;2024-02-21T09:17:16;12.40;57.80
80176;DHT22;75462;42.122;24.736;2024-02-21T09:19:47;12.70;57.70
80176;DHT22;75462;42.122;24.736;2024-02-21T09:22:13;12.90;56.40
80176;DHT22;75462;42.122;24.736;2024-02-21T09:24:39;12.90;56.00
80176;DHT22;75462;42.122;24.736;2024-02-21T09:27:05;12.90;56.30
80176;DHT22;75462;42.122;24.736;2024-02-21T09:29:31;12.80;55.30
80176;DHT22;75462;42.122;24.736;2024-02-21T09:31:59;12.90;55.50
80176;DHT22;75462;42.122;24.736;2024-02-21T09:34:24;12.90;55.50
80176;DHT22;75462;42.122;24.736;2024-02-21T09:36:50;12.80;55.50
80176;DHT22;75462;42.122;24.736;2024-02-21T09:39:16;12.60;56.60
80176;DHT22;75462;42.122;24.736;2024-02-21T09:41:47;12.70;55.10
80176;DHT22;75462;42.122;24.736;2024-02-21T09:44:16;13.00;53.90
80176;DHT22;75462;42.122;24.736;2024-02-21T09:46:56;13.00;52.30
80176;DHT22;75462;42.122;24.736;2024-02-21T09:49:30;12.90;52.00
80176;DHT22;75462;42.122;24.736;2024-02-21T09:51:57;12.80;52.00
80176;DHT22;75462;42.122;24.736;2024-02-21T09:54:24;12.80;51.90
80176;DHT22;75462;42.122;24.736;2024-02-21T09:56:50;12.80;52.10
80176;DHT22;75462;42.122;24.736;2024-02-21T09:59:16;12.70;52.50
80176;DHT22;75462;42.122;24.736;2024-02-21T10:01:45;12.60;52.60
80176;DHT22;75462;42.122;24.736;2024-02-21T10:04:14;12.70;53.00
80176;DHT22;75462;42.122;24.736;2024-02-21T10:06:41;12.50;53.60
80176;DHT22;75462;42.122;24.736;2024-02-21T10:09:07;12.70;53.40
80176;DHT22;75462;42.122;24.736;2024-02-21T10:11:33;12.70;52.40
80176;DHT22;75462;42.122;24.736;2024-02-21T10:14:06;12.80;51.20
80176;DHT22;75462;42.122;24.736;2024-02-21T10:16:32;13.00;51.10
80176;DHT22;75462;42.122;24.736;2024-02-21T10:18:59;13.10;50.30
80176;DHT22;75462;42.122;24.736;2024-02-21T10:21:24;13.00;50.30
80176;DHT22;75462;42.122;24.736;2024-02-21T10:23:51;13.00;50.70
80176;DHT22;75462;42.122;24.736;2024-02-21T10:26:19;13.40;50.20
80176;DHT22;75462;42.122;24.736;2024-02-21T10:28:45;13.80;48.50
80176;DHT22;75462;42.122;24.736;2024-02-21T10:31:26;13.90;45.80
80176;DHT22;75462;42.122;24.736;2024-02-21T10:33:59;14.20;45.20
80176;DHT22;75462;42.122;24.736;2024-02-21T10:36:28;14.00;45.20
80176;DHT22;75462;42.122;24.736;2024-02-21T10:38:54;13.70;46.40
80176;DHT22;75462;42.122;24.736;2024-02-21T10:41:21;13.70;46.80
80176;DHT22;75462;42.122;24.736;2024-02-21T10:43:50;13.70;46.70
80176;DHT22;75462;42.122;24.736;2024-02-21T10:46:21;13.80;46.80
80176;DHT22;75462;42.122;24.736;2024-02-21T10:48:48;14.10;45.70
80176;DHT22;75462;42.122;24.736;2024-02-21T10:51:20;14.00;45.20
80176;DHT22;75462;42.122;24.736;2024-02-21T10:56:29;14.20;44.40
80176;DHT22;75462;42.122;24.736;2024-02-21T10:59:00;14.50;44.10
80176;DHT22;75462;42.122;24.736;2024-02-21T11:01:26;14.90;43.30
80176;DHT22;75462;42.122;24.736;2024-02-21T11:03:56;14.80;42.90
80176;DHT22;75462;42.122;24.736;2024-02-21T11:06:22;14.80;43.40
80176;DHT22;75462;42.122;24.736;2024-02-21T11:09:02;15.10;42.00
80176;DHT22;75462;42.122;24.736;2024-02-21T11:11:32;15.50;41.00
80176;DHT22;75462;42.122;24.736;2024-02-21T11:16:38;15.70;41.30
80176;DHT22;75462;42.122;24.736;2024-02-21T11:19:08;16.20;40.40
80176;DHT22;75462;42.122;24.736;2024-02-21T11:21:35;16.80;38.70
80176;DHT22;75462;42.122;24.736;2024-02-21T11:24:02;17.40;36.70
80176;DHT22;75462;42.122;24.736;2024-02-21T11:26:29;17.90;33.90
80176;DHT22;75462;42.122;24.736;2024-02-21T11:29:02;18.60;32.80
80176;DHT22;75462;42.122;24.736;2024-02-21T11:31:45;18.80;32.00
80176;DHT22;75462;42.122;24.736;2024-02-21T11:34:18;19.40;30.70
80176;DHT22;75462;42.122;24.736;2024-02-21T11:36:51;20.40;29.80
80176;DHT22;75462;42.122;24.736;2024-02-21T11:39:23;21.20;28.50
80176;DHT22;75462;42.122;24.736;2024-02-21T11:42:03;21.20;27.80
80176;DHT22;75462;42.122;24.736;2024-02-21T11:44:30;22.10;26.60
80176;DHT22;75462;42.122;24.736;2024-02-21T11:46:56;23.30;24.70
80176;DHT22;75462;42.122;24.736;2024-02-21T11:49:31;22.30;25.50
80176;DHT22;75462;42.122;24.736;2024-02-21T11:52:03;23.10;24.60
80176;DHT22;75462;42.122;24.736;2024-02-21T11:54:33;23.40;24.40
80176;DHT22;75462;42.122;24.736;2024-02-21T11:57:00;24.30;23.20
80176;DHT22;75462;42.122;24.736;2024-02-21T11:59:26;24.70;22.50
80176;DHT22;75462;42.122;24.736;2024-02-21T12:01:55;25.80;21.10
80176;DHT22;75462;42.122;24.736;2024-02-21T12:04:22;26.60;20.20
80176;DHT22;75462;42.122;24.736;2024-02-21T12:06:53;27.70;19.40
80176;DHT22;75462;42.122;24.736;2024-02-21T12:09:19;27.30;18.70
80176;DHT22;75462;42.122;24.736;2024-02-21T12:11:45;27.50;19.10
80176;DHT22;75462;42.122;24.736;2024-02-21T12:14:17;28.20;17.20
80176;DHT22;75462;42.122;24.736;2024-02-21T12:16:43;29.10;16.70
80176;DHT22;75462;42.122;24.736;2024-02-21T12:19:14;29.80;16.30
80176;DHT22;75462;42.122;24.736;2024-02-21T12:21:42;29.30;16.90
80176;DHT22;75462;42.122;24.736;2024-02-21T12:24:26;28.80;16.20
80176;DHT22;75462;42.122;24.736;2024-02-21T12:26:56;28.60;16.30
80176;DHT22;75462;42.122;24.736;2024-02-21T12:29:25;28.00;16.80
80176;DHT22;75462;42.122;24.736;2024-02-21T12:31:51;27.10;17.90
80176;DHT22;75462;42.122;24.736;2024-02-21T12:34:17;26.40;17.30
80176;DHT22;75462;42.122;24.736;2024-02-21T12:36:44;26.70;17.50
80176;DHT22;75462;42.122;24.736;2024-02-21T12:39:10;26.50;18.00
80176;DHT22;75462;42.122;24.736;2024-02-21T12:41:37;25.40;19.60
80176;DHT22;75462;42.122;24.736;2024-02-21T12:44:09;25.20;19.50
80176;DHT22;75462;42.122;24.736;2024-02-21T12:46:37;26.10;18.90
80176;DHT22;75462;42.122;24.736;2024-02-21T12:49:03;27.50;17.60
80176;DHT22;75462;42.122;24.736;2024-02-21T12:51:30;27.90;17.30
80176;DHT22;75462;42.122;24.736;2024-02-21T12:53:56;26.70;17.90
80176;DHT22;75462;42.122;24.736;2024-02-21T12:56:22;25.80;18.90
80176;DHT22;75462;42.122;24.736;2024-02-21T12:58:47;26.10;18.90
80176;DHT22;75462;42.122;24.736;2024-02-21T13:01:13;27.60;17.00
80176;DHT22;75462;42.122;24.736;2024-02-21T13:03:39;27.90;16.90
80176;DHT22;75462;42.122;24.736;2024-02-21T13:06:07;27.40;17.00
80176;DHT22;75462;42.122;24.736;2024-02-21T13:08:37;27.10;17.40
80176;DHT22;75462;42.122;24.736;2024-02-21T13:11:03;27.40;16.50
80176;DHT22;75462;42.122;24.736;2024-02-21T13:13:29;28.00;16.10
80176;DHT22;75462;42.122;24.736;2024-02-21T13:15:55;29.70;15.30
80176;DHT22;75462;42.122;24.736;2024-02-21T13:18:21;29.30;15.20
80176;DHT22;75462;42.122;24.736;2024-02-21T13:20:47;28.70;16.00
80176;DHT22;75462;42.122;24.736;2024-02-21T13:23:13;28.90;14.30
80176;DHT22;75462;42.122;24.736;2024-02-21T13:25:39;28.20;15.00
80176;DHT22;75462;42.122;24.736;2024-02-21T13:28:04;28.10;15.60
80176;DHT22;75462;42.122;24.736;2024-02-21T13:30:30;27.60;15.60
80176;DHT22;75462;42.122;24.736;2024-02-21T13:32:56;27.70;16.00
80176;DHT22;75462;42.122;24.736;2024-02-21T13:35:22;28.10;15.70
80176;DHT22;75462;42.122;24.736;2024-02-21T13:37:47;28.70;15.70
80176;DHT22;75462;42.122;24.736;2024-02-21T13:40:14;29.10;15.30
80176;DHT22;75462;42.122;24.736;2024-02-21T13:42:40;29.10;14.90
80176;DHT22;75462;42.122;24.736;2024-02-21T13:45:06;29.30;14.80
80176;DHT22;75462;42.122;24.736;2024-02-21T13:47:33;28.60;14.90
80176;DHT22;75462;42.122;24.736;2024-02-21T13:50:01;26.70;16.80
80176;DHT22;75462;42.122;24.736;2024-02-21T13:52:27;25.30;18.30
80176;DHT22;75462;42.122;24.736;2024-02-21T13:54:53;23.80;19.80
80176;DHT22;75462;42.122;24.736;2024-02-21T13:57:19;22.60;21.30
80176;DHT22;75462;42.122;24.736;2024-02-21T13:59:44;22.60;21.10
80176;DHT22;75462;42.122;24.736;2024-02-21T14:02:10;23.40;20.30
80176;DHT22;75462;42.122;24.736;2024-02-21T14:04:36;24.70;18.80
80176;DHT22;75462;42.122;24.736;2024-02-21T14:07:02;25.50;17.40
80176;DHT22;75462;42.122;24.736;2024-02-21T14:09:28;25.70;17.00
80176;DHT22;75462;42.122;24.736;2024-02-21T14:11:57;25.00;17.10
80176;DHT22;75462;42.122;24.736;2024-02-21T14:14:25;24.00;18.60
80176;DHT22;75462;42.122;24.736;2024-02-21T14:16:51;22.60;20.00
80176;DHT22;75462;42.122;24.736;2024-02-21T14:19:17;20.90;22.40
80176;DHT22;75462;42.122;24.736;2024-02-21T14:21:44;19.90;23.90
80176;DHT22;75462;42.122;24.736;2024-02-21T14:24:10;18.90;25.60
80176;DHT22;75462;42.122;24.736;2024-02-21T14:26:37;18.20;27.80
80176;DHT22;75462;42.122;24.736;2024-02-21T14:29:04;17.90;29.80
80176;DHT22;75462;42.122;24.736;2024-02-21T14:31:31;18.00;30.50
80176;DHT22;75462;42.122;24.736;2024-02-21T14:33:58;17.90;30.40
80176;DHT22;75462;42.122;24.736;2024-02-21T14:36:23;17.90;30.90
80176;DHT22;75462;42.122;24.736;2024-02-21T14:38:49;18.40;30.00
80176;DHT22;75462;42.122;24.736;2024-02-21T14:41:17;18.50;29.60
80176;DHT22;75462;42.122;24.736;2024-02-21T14:43:45;18.30;29.40
80176;DHT22;75462;42.122;24.736;2024-02-21T14:46:12;18.10;29.80
80176;DHT22;75462;42.122;24.736;2024-02-21T14:48:38;17.80;30.20
80176;DHT22;75462;42.122;24.736;2024-02-21T14:51:04;17.60;31.00
80176;DHT22;75462;42.122;24.736;2024-02-21T14:53:30;17.30;32.00
80176;DHT22;75462;42.122;24.736;2024-02-21T14:55:58;17.00;32.70
80176;DHT22;75462;42.122;24.736;2024-02-21T14:58:24;17.00;33.00
80176;DHT22;75462;42.122;24.736;2024-02-21T15:00:50;17.00;32.30
80176;DHT22;75462;42.122;24.736;2024-02-21T15:03:18;17.00;32.40
80176;DHT22;75462;42.122;24.736;2024-02-21T15:05:47;16.90;32.80
80176;DHT22;75462;42.122;24.736;2024-02-21T15:08:13;16.70;33.20
80176;DHT22;75462;42.122;24.736;2024-02-21T15:10:42;16.50;34.00
80176;DHT22;75462;42.122;24.736;2024-02-21T15:13:08;16.30;34.90
80176;DHT22;75462;42.122;24.736;2024-02-21T15:15:34;16.30;35.10
80176;DHT22;75462;42.122;24.736;2024-02-21T15:18:00;16.50;34.60
80176;DHT22;75462;42.122;24.736;2024-02-21T15:20:25;16.60;34.10
80176;DHT22;75462;42.122;24.736;2024-02-21T15:22:53;16.60;34.20
80176;DHT22;75462;42.122;24.736;2024-02-21T15:25:19;16.60;33.90
80176;DHT22;75462;42.122;24.736;2024-02-21T15:27:46;16.60;33.50
80176;DHT22;75462;42.122;24.736;2024-02-21T15:30:12;16.50;33.90
80176;DHT22;75462;42.122;24.736;2024-02-21T15:32:39;16.40;34.30
80176;DHT22;75462;42.122;24.736;2024-02-21T15:35:06;16.20;34.80
80176;DHT22;75462;42.122;24.736;2024-02-21T15:37:33;16.00;35.30
80176;DHT22;75462;42.122;24.736;2024-02-21T15:39:58;16.00;35.60